Time;durP1;ratioP1;P1;durP2;ratioP2;P2;SDS_P1;SDS_P2;PMS_P1;PMS_P2;Temp;Humidity;BMP_temperature;BMP_pressure;BME280_temperature;BME280_humidity;BME280_pressure;Samples;Min_cycle;Max_cycle;Signal;HPM_P1;HPM_P2
2023/07/02 00:00:08;;;;;;;8.60;3.65;;;16.50;99.90;;;;;;5071338;28;20041;-85
2023/07/02 00:02:34;;;;;;;10.80;6.90;;;16.50;99.90;;;;;;5070161;28;20406;-85
2023/07/02 00:04:59;;;;;;;12.88;6.63;;;16.50;99.90;;;;;;5070179;28;20076;-85
2023/07/02 00:07:28;;;;;;;8.82;4.60;;;16.50;99.90;;;;;;5070338;28;20075;-85
2023/07/02 00:09:54;;;;;;;10.20;4.30;;;16.40;99.90;;;;;;5069821;28;20040;-85
2023/07/02 00:12:19;;;;;;;11.57;6.10;;;16.30;99.90;;;;;;5053122;28;20048;-85
2023/07/02 00:14:45;;;;;;;12.60;4.60;;;16.30;99.90;;;;;;5070189;28;20037;-85
2023/07/02 00:17:12;;;;;;;10.52;5.13;;;16.30;99.90;;;;;;5070176;28;20044;-85
2023/07/02 00:19:41;;;;;;;11.35;6.15;;;16.30;99.90;;;;;;5053080;28;20119;-85
2023/07/02 00:22:07;;;;;;;10.20;6.35;;;16.30;99.90;;;;;;5069748;28;20111;-85
2023/07/02 00:24:33;;;;;;;9.57;4.00;;;16.30;99.90;;;;;;5069780;28;20043;-85
2023/07/02 00:26:59;;;;;;;11.05;6.80;;;16.20;99.90;;;;;;5070033;28;20037;-85
2023/07/02 00:29:24;;;;;;;12.13;6.45;;;16.30;99.90;;;;;;5069540;28;20044;-85
2023/07/02 00:31:50;;;;;;;12.00;6.90;;;16.30;99.90;;;;;;5069750;28;20078;-85
2023/07/02 00:34:15;;;;;;;13.13;7.03;;;16.20;99.90;;;;;;5053451;28;20115;-84
2023/07/02 00:36:41;;;;;;;13.80;4.45;;;16.20;99.90;;;;;;5070264;28;20036;-85
2023/07/02 00:39:07;;;;;;;9.50;6.35;;;16.10;99.90;;;;;;5069947;28;20520;-85
2023/07/02 00:41:33;;;;;;;10.48;7.38;;;16.10;99.90;;;;;;5069357;28;20029;-84
2023/07/02 00:43:58;;;;;;;10.52;6.50;;;16.10;99.90;;;;;;5052789;28;20041;-85
2023/07/02 00:46:27;;;;;;;8.77;4.30;;;16.10;99.90;;;;;;5069721;28;20119;-85
2023/07/02 00:48:54;;;;;;;9.70;4.10;;;16.00;99.90;;;;;;5069225;28;20041;-84
2023/07/02 00:51:25;;;;;;;7.90;4.07;;;16.00;99.90;;;;;;5069299;28;20131;-84
2023/07/02 00:53:53;;;;;;;12.20;7.28;;;15.90;99.90;;;;;;5053062;28;20090;-84
2023/07/02 00:56:19;;;;;;;11.15;6.60;;;15.90;99.90;;;;;;5069886;28;20037;-85
2023/07/02 00:58:48;;;;;;;10.02;4.43;;;15.90;99.90;;;;;;5069687;28;20395;-85
2023/07/02 01:01:25;;;;;;;10.35;5.20;;;15.90;99.90;;;;;;5069630;28;20029;-85
2023/07/02 01:04:02;;;;;;;11.45;7.05;;;15.80;99.90;;;;;;5069249;28;20045;-85
2023/07/02 01:06:35;;;;;;;10.10;4.35;;;15.90;99.90;;;;;;5053283;28;20471;-85
2023/07/02 01:09:05;;;;;;;7.95;4.20;;;15.80;99.90;;;;;;5069064;28;20036;-85
2023/07/02 01:11:45;;;;;;;14.05;6.88;;;15.80;99.90;;;;;;5069050;28;20044;-85
2023/07/02 01:14:26;;;;;;;10.55;4.47;;;15.80;99.90;;;;;;5069761;28;20052;-85
2023/07/02 01:16:53;;;;;;;11.63;4.68;;;15.80;99.90;;;;;;5053029;28;20557;-84
2023/07/02 01:19:26;;;;;;;12.68;7.50;;;15.80;99.90;;;;;;5052890;28;20166;-85
2023/07/02 01:21:52;;;;;;;10.98;4.15;;;15.80;99.90;;;;;;5069501;28;20147;-85
2023/07/02 01:24:17;;;;;;;11.77;6.60;;;15.80;99.90;;;;;;5072489;28;20562;-84
2023/07/02 01:26:45;;;;;;;15.63;7.32;;;15.80;99.90;;;;;;5073217;28;20033;-85
2023/07/02 01:29:18;;;;;;;11.38;6.43;;;15.80;99.90;;;;;;5072892;28;20124;-84
2023/07/02 01:31:44;;;;;;;9.00;3.75;;;15.80;99.90;;;;;;5056213;28;20082;-85
2023/07/02 01:34:10;;;;;;;13.15;6.63;;;15.80;99.90;;;;;;5073284;28;20171;-85
2023/07/02 01:36:37;;;;;;;14.48;7.22;;;15.70;99.90;;;;;;5073303;28;20573;-85
2023/07/02 01:39:03;;;;;;;12.48;4.28;;;15.70;99.90;;;;;;5073261;28;20055;-84
2023/07/02 01:41:28;;;;;;;13.93;6.40;;;15.70;99.90;;;;;;5073015;28;20082;-85
2023/07/02 01:43:54;;;;;;;14.05;5.20;;;15.60;99.90;;;;;;5055887;28;20044;-84
2023/07/02 01:46:20;;;;;;;15.50;7.63;;;15.50;99.90;;;;;;5056609;28;20032;-85
2023/07/02 01:48:46;;;;;;;12.05;7.05;;;15.50;99.90;;;;;;5055717;28;20033;-85
2023/07/02 01:51:11;;;;;;;14.52;7.53;;;15.50;99.90;;;;;;5072447;28;20040;-84
2023/07/02 01:53:37;;;;;;;15.68;4.35;;;15.50;99.90;;;;;;5072773;28;20072;-85
2023/07/02 01:56:03;;;;;;;10.82;4.35;;;15.40;99.90;;;;;;5056493;28;20044;-85
2023/07/02 01:58:28;;;;;;;15.35;7.15;;;15.30;99.90;;;;;;5072884;28;20044;-84
2023/07/02 02:00:54;;;;;;;13.98;4.30;;;15.30;99.90;;;;;;5055734;28;20044;-85
2023/07/02 02:03:21;;;;;;;12.75;4.50;;;15.20;99.90;;;;;;5072169;28;20071;-85
2023/07/02 02:05:47;;;;;;;13.68;5.20;;;15.20;99.90;;;;;;5072563;28;20406;-84
2023/07/02 02:08:12;;;;;;;16.92;7.80;;;15.10;99.90;;;;;;5055644;28;20036;-85
2023/07/02 02:10:38;;;;;;;15.15;7.55;;;15.10;99.90;;;;;;5055740;28;20456;-84
2023/07/02 02:13:03;;;;;;;20.55;5.60;;;15.10;99.90;;;;;;5072027;28;20076;-84
2023/07/02 02:15:29;;;;;;;15.02;5.05;;;15.00;99.90;;;;;;5072716;28;20395;-84
2023/07/02 02:17:54;;;;;;;19.35;8.68;;;14.90;99.90;;;;;;5072318;28;20084;-84
2023/07/02 02:20:20;;;;;;;12.40;5.20;;;15.00;99.90;;;;;;5072771;28;20036;-84
2023/07/02 02:22:46;;;;;;;14.38;4.47;;;14.90;99.90;;;;;;5055567;28;20094;-84
2023/07/02 02:25:11;;;;;;;19.52;9.15;;;14.80;99.90;;;;;;5072130;28;20032;-84
2023/07/02 02:27:37;;;;;;;13.48;5.40;;;14.80;99.90;;;;;;5071872;28;20174;-84
2023/07/02 02:30:03;;;;;;;18.73;9.35;;;14.70;99.90;;;;;;5054898;28;20123;-84
2023/07/02 02:32:29;;;;;;;15.43;6.20;;;14.70;99.90;;;;;;5071936;28;20040;-84
2023/07/02 02:34:54;;;;;;;15.00;6.10;;;14.60;99.90;;;;;;5072391;28;20098;-84
2023/07/02 02:37:22;;;;;;;18.35;9.02;;;14.50;99.90;;;;;;5072187;28;20498;-84
2023/07/02 02:39:47;;;;;;;15.75;5.45;;;14.50;99.90;;;;;;5055262;28;20033;-84
2023/07/02 02:42:13;;;;;;;22.33;10.40;;;14.40;99.90;;;;;;5071798;28;20037;-84
2023/07/02 02:44:39;;;;;;;18.02;6.28;;;14.30;99.90;;;;;;5054821;28;20029;-84
2023/07/02 02:47:05;;;;;;;14.15;5.93;;;14.30;99.90;;;;;;5071711;28;20061;-84
2023/07/02 02:49:31;;;;;;;26.00;7.88;;;14.20;99.90;;;;;;5071402;28;20398;-84
2023/07/02 02:51:57;;;;;;;20.80;9.88;;;14.20;99.90;;;;;;5055005;28;20512;-84
2023/07/02 02:54:22;;;;;;;17.05;5.63;;;14.20;99.90;;;;;;5055232;28;20033;-84
2023/07/02 02:56:48;;;;;;;17.80;10.10;;;14.10;99.90;;;;;;5071588;28;20193;-83
2023/07/02 02:59:13;;;;;;;16.50;5.43;;;14.10;99.90;;;;;;5055085;28;20046;-84
2023/07/02 03:01:39;;;;;;;14.73;6.75;;;14.10;99.90;;;;;;5071309;28;20037;-84
2023/07/02 03:04:08;;;;;;;16.98;5.57;;;14.00;99.90;;;;;;5054621;28;20551;-84
2023/07/02 03:06:33;;;;;;;15.60;5.07;;;13.90;99.90;;;;;;5054666;28;20127;-84
2023/07/02 03:08:59;;;;;;;16.75;6.80;;;13.90;99.90;;;;;;5070912;28;20119;-84
2023/07/02 03:11:24;;;;;;;17.27;5.68;;;13.80;99.90;;;;;;5070456;28;20048;-85
2023/07/02 03:13:50;;;;;;;17.80;6.10;;;13.80;99.90;;;;;;5053898;28;20070;-84
2023/07/02 03:16:16;;;;;;;20.92;9.75;;;13.80;99.90;;;;;;5054708;28;20040;-84
2023/07/02 03:18:41;;;;;;;21.00;10.77;;;13.80;99.90;;;;;;5071257;28;20040;-84
2023/07/02 03:21:07;;;;;;;12.55;4.22;;;13.80;99.90;;;;;;5070705;28;20050;-85
2023/07/02 03:23:33;;;;;;;24.95;10.77;;;13.80;99.90;;;;;;5070785;28;20441;-84
2023/07/02 03:25:58;;;;;;;21.88;5.82;;;13.80;99.90;;;;;;5070775;28;20073;-84
2023/07/02 03:28:24;;;;;;;17.55;4.47;;;13.70;99.90;;;;;;5054306;28;20044;-84
2023/07/02 03:30:49;;;;;;;19.25;10.52;;;13.70;99.90;;;;;;5070578;28;20043;-84
2023/07/02 03:33:15;;;;;;;16.67;5.03;;;13.70;99.90;;;;;;5054148;28;20050;-84
2023/07/02 03:35:41;;;;;;;21.17;11.00;;;13.60;99.90;;;;;;5071077;28;20040;-84
2023/07/02 03:38:06;;;;;;;27.33;11.25;;;13.70;99.90;;;;;;5054423;28;20036;-84
2023/07/02 03:40:32;;;;;;;18.98;5.60;;;13.70;99.90;;;;;;5070636;28;20036;-84
2023/07/02 03:42:58;;;;;;;16.60;5.75;;;13.60;99.90;;;;;;5054094;28;20033;-84
2023/07/02 03:45:23;;;;;;;23.90;11.57;;;13.50;99.90;;;;;;5069635;28;20122;-84
2023/07/02 03:47:49;;;;;;;23.17;11.65;;;13.50;99.90;;;;;;5070629;28;20071;-85
2023/07/02 03:50:15;;;;;;;19.23;5.65;;;13.50;99.90;;;;;;5053255;28;20047;-84
2023/07/02 03:52:40;;;;;;;20.08;6.15;;;13.50;99.90;;;;;;5054122;28;20482;-84
2023/07/02 03:55:06;;;;;;;23.17;10.98;;;13.40;99.90;;;;;;5070404;28;20567;-84
2023/07/02 03:57:32;;;;;;;21.42;10.88;;;13.50;99.90;;;;;;5070429;28;20083;-84
2023/07/02 03:59:57;;;;;;;25.42;11.30;;;13.50;99.90;;;;;;5070329;28;20071;-84
2023/07/02 04:02:23;;;;;;;27.30;11.98;;;13.50;99.90;;;;;;5070184;28;20036;-84
2023/07/02 04:04:49;;;;;;;23.63;6.00;;;13.50;99.90;;;;;;5070079;28;20032;-84
2023/07/02 04:07:15;;;;;;;18.35;5.88;;;13.50;99.90;;;;;;5070078;28;20596;-85
2023/07/02 04:09:40;;;;;;;16.40;5.88;;;13.40;99.90;;;;;;5069734;28;20036;-84
2023/07/02 04:12:06;;;;;;;16.00;7.00;;;13.40;99.90;;;;;;5053457;28;20037;-84
2023/07/02 04:14:32;;;;;;;17.88;5.65;;;13.40;99.90;;;;;;5069828;28;20421;-83
2023/07/02 04:16:58;;;;;;;21.23;5.82;;;13.40;99.90;;;;;;5070108;28;20042;-84
2023/07/02 04:19:23;;;;;;;26.08;11.70;;;13.30;99.90;;;;;;5069802;28;20040;-84
2023/07/02 04:21:49;;;;;;;16.85;5.88;;;13.40;99.90;;;;;;5053145;28;20036;-84
2023/07/02 04:24:14;;;;;;;14.30;5.45;;;13.40;99.90;;;;;;5069974;28;20446;-84
2023/07/02 04:26:42;;;;;;;20.10;6.38;;;13.40;99.90;;;;;;5053183;28;20154;-84
2023/07/02 04:29:10;;;;;;;25.23;11.50;;;13.50;99.90;;;;;;5053166;28;20047;-85
2023/07/02 04:31:35;;;;;;;19.33;5.70;;;13.60;99.90;;;;;;5069591;28;20093;-84
2023/07/02 04:34:01;;;;;;;24.13;11.63;;;13.60;99.90;;;;;;5069296;28;20102;-84
2023/07/02 04:36:28;;;;;;;24.33;11.63;;;13.70;99.90;;;;;;5070167;28;20040;-84
2023/07/02 04:38:53;;;;;;;21.00;6.75;;;13.80;99.90;;;;;;5069986;28;20040;-84
2023/07/02 04:41:19;;;;;;;18.38;5.85;;;13.80;99.90;;;;;;5069632;28;20040;-84
2023/07/02 04:43:45;;;;;;;22.15;6.47;;;13.80;99.90;;;;;;5053020;28;20041;-84
2023/07/02 04:46:12;;;;;;;19.75;6.65;;;13.80;99.90;;;;;;5052796;28;20029;-84
2023/07/02 04:48:38;;;;;;;19.70;7.20;;;13.80;99.90;;;;;;5070786;28;20120;-84
2023/07/02 04:51:04;;;;;;;23.40;11.15;;;13.90;99.90;;;;;;5069227;28;20048;-84
2023/07/02 04:53:29;;;;;;;19.55;6.47;;;14.00;99.90;;;;;;5071003;28;20047;-84
2023/07/02 04:55:57;;;;;;;25.27;11.50;;;14.00;99.90;;;;;;5071180;28;20040;-84
2023/07/02 04:58:23;;;;;;;18.45;6.93;;;14.10;99.90;;;;;;5068711;28;20072;-85
2023/07/02 05:00:48;;;;;;;21.10;6.18;;;14.10;99.90;;;;;;5071002;28;20071;-84
2023/07/02 05:03:14;;;;;;;20.20;6.95;;;14.10;99.90;;;;;;5053037;28;20041;-84
2023/07/02 05:05:40;;;;;;;17.63;6.30;;;14.10;99.90;;;;;;5069122;28;20037;-84
2023/07/02 05:08:05;;;;;;;18.50;6.75;;;14.10;99.90;;;;;;5069896;28;20131;-85
2023/07/02 05:10:32;;;;;;;24.15;11.15;;;14.10;99.90;;;;;;5070242;28;20084;-84
2023/07/02 05:12:57;;;;;;;19.90;6.32;;;14.30;99.90;;;;;;5070361;28;20036;-85
2023/07/02 05:15:24;;;;;;;18.42;5.95;;;14.30;99.90;;;;;;5071013;28;20429;-85
2023/07/02 05:17:49;;;;;;;20.27;6.82;;;14.30;99.90;;;;;;5069512;28;20041;-84
2023/07/02 05:20:15;;;;;;;17.75;6.45;;;14.40;99.90;;;;;;5069605;28;20044;-84
2023/07/02 05:22:41;;;;;;;25.27;11.60;;;14.50;99.90;;;;;;5070570;28;20047;-84
2023/07/02 05:25:07;;;;;;;21.10;7.13;;;14.60;99.90;;;;;;5069274;28;20064;-84
2023/07/02 05:27:32;;;;;;;26.23;11.02;;;14.60;99.90;;;;;;5069369;28;20119;-84
2023/07/02 05:29:58;;;;;;;23.13;10.68;;;14.70;99.90;;;;;;5068781;28;20494;-84
2023/07/02 05:32:23;;;;;;;24.92;11.50;;;14.90;99.90;;;;;;5069428;28;20383;-84
2023/07/02 05:34:49;;;;;;;20.98;6.32;;;14.90;99.90;;;;;;5070398;28;20177;-84
2023/07/02 05:37:15;;;;;;;18.42;6.97;;;15.00;99.90;;;;;;5069502;28;20078;-84
2023/07/02 05:39:40;;;;;;;18.38;5.85;;;15.00;99.90;;;;;;5069163;28;20413;-84
2023/07/02 05:42:06;;;;;;;20.63;5.32;;;15.10;99.90;;;;;;5069108;28;20076;-84
2023/07/02 05:44:32;;;;;;;24.30;10.45;;;15.10;99.90;;;;;;5068993;28;20036;-84
2023/07/02 05:46:57;;;;;;;25.88;11.05;;;15.20;99.90;;;;;;5068953;28;20115;-84
2023/07/02 05:49:23;;;;;;;22.92;5.90;;;15.30;99.90;;;;;;5069131;28;20517;-84
2023/07/02 05:51:48;;;;;;;24.30;11.68;;;15.30;99.90;;;;;;5068861;28;20040;-84
2023/07/02 05:54:14;;;;;;;18.20;6.20;;;15.40;99.90;;;;;;5068697;28;20040;-85
2023/07/02 05:56:40;;;;;;;18.85;6.88;;;15.40;99.90;;;;;;5069366;28;20078;-85
2023/07/02 05:59:05;;;;;;;21.75;10.48;;;15.50;99.90;;;;;;5069169;28;20521;-85
2023/07/02 06:01:31;;;;;;;24.05;11.50;;;15.50;99.90;;;;;;5052049;28;20086;-85
2023/07/02 06:03:56;;;;;;;18.23;5.80;;;15.70;99.90;;;;;;5068871;28;20040;-85
2023/07/02 06:06:24;;;;;;;15.65;5.68;;;15.70;99.90;;;;;;5068725;28;20033;-85
2023/07/02 06:08:50;;;;;;;23.05;10.75;;;15.70;99.90;;;;;;5053535;28;20036;-85
2023/07/02 06:11:15;;;;;;;16.92;6.43;;;15.80;99.90;;;;;;5055049;28;20497;-85
2023/07/02 06:13:41;;;;;;;19.73;5.72;;;15.90;99.90;;;;;;5055715;28;20047;-84
2023/07/02 06:16:07;;;;;;;23.77;10.32;;;15.90;99.90;;;;;;5072510;28;20383;-85
2023/07/02 06:18:32;;;;;;;24.17;10.88;;;16.00;99.90;;;;;;5072455;28;20533;-85
2023/07/02 06:20:58;;;;;;;25.73;11.10;;;16.10;99.90;;;;;;5072325;28;20036;-84
2023/07/02 06:23:24;;;;;;;21.77;10.27;;;16.10;99.90;;;;;;5072093;28;20047;-85
2023/07/02 06:25:52;;;;;;;21.33;10.13;;;16.20;99.90;;;;;;5071936;28;20032;-85
2023/07/02 06:28:18;;;;;;;20.13;5.50;;;16.30;99.90;;;;;;5072077;28;20036;-85
2023/07/02 06:30:44;;;;;;;19.38;6.82;;;16.40;99.90;;;;;;5071967;28;20471;-85
2023/07/02 06:33:10;;;;;;;28.20;11.27;;;16.40;99.90;;;;;;5072053;28;20545;-85
2023/07/02 06:35:36;;;;;;;21.65;9.48;;;16.50;99.90;;;;;;5071924;28;20052;-85
2023/07/02 06:38:01;;;;;;;21.83;10.20;;;16.60;99.90;;;;;;5072083;28;20429;-85
2023/07/02 06:40:27;;;;;;;17.33;5.50;;;16.70;99.90;;;;;;5071433;28;20409;-85
2023/07/02 06:42:52;;;;;;;22.35;10.30;;;16.70;99.90;;;;;;5071904;28;20123;-85
2023/07/02 06:45:18;;;;;;;12.95;4.85;;;16.70;99.90;;;;;;5055019;28;20036;-85
2023/07/02 06:47:44;;;;;;;24.63;10.18;;;16.80;99.90;;;;;;5053905;28;20044;-85
2023/07/02 06:50:09;;;;;;;23.65;9.65;;;16.80;99.90;;;;;;5071275;28;20032;-84
2023/07/02 06:52:36;;;;;;;20.55;6.00;;;16.90;99.90;;;;;;5054604;28;20521;-85
2023/07/02 06:55:03;;;;;;;20.50;9.13;;;16.90;99.90;;;;;;5071276;28;20102;-85
2023/07/02 06:57:28;;;;;;;21.27;8.63;;;17.00;99.90;;;;;;5054898;28;20074;-85
2023/07/02 07:00:00;;;;;;;20.27;5.75;;;17.00;99.90;;;;;;5053256;28;20070;-85
2023/07/02 07:02:29;;;;;;;18.67;8.73;;;16.90;99.90;;;;;;5051104;28;20037;-85
2023/07/02 07:04:54;;;;;;;22.25;9.10;;;17.00;99.90;;;;;;5034878;28;20033;-85
2023/07/02 07:07:20;;;;;;;15.10;5.22;;;17.10;99.90;;;;;;5051341;28;20091;-85
2023/07/02 07:09:46;;;;;;;20.33;8.23;;;17.10;99.90;;;;;;5051041;28;20518;-85
2023/07/02 07:12:11;;;;;;;20.02;8.95;;;17.20;99.90;;;;;;5050816;28;20124;-85
2023/07/02 07:14:37;;;;;;;19.02;8.50;;;17.30;99.90;;;;;;5034633;28;20517;-85
2023/07/02 07:17:02;;;;;;;16.40;5.28;;;17.30;99.90;;;;;;5051168;28;20473;-85
2023/07/02 07:19:28;;;;;;;19.70;8.63;;;17.30;99.90;;;;;;5051053;28;20132;-85
2023/07/02 07:21:54;;;;;;;20.50;7.90;;;17.40;99.90;;;;;;5050666;28;20140;-85
2023/07/02 07:24:19;;;;;;;18.77;8.10;;;17.50;99.90;;;;;;5034315;28;20489;-85
2023/07/02 07:26:45;;;;;;;16.92;7.68;;;17.60;99.90;;;;;;5049730;28;20043;-85
2023/07/02 07:29:11;;;;;;;16.48;7.55;;;17.70;99.90;;;;;;5051013;28;20120;-85
2023/07/02 07:31:37;;;;;;;17.30;5.15;;;17.80;99.90;;;;;;5033777;28;20124;-85
2023/07/02 07:34:03;;;;;;;18.52;7.13;;;17.80;99.90;;;;;;5050937;28;20453;-85
2023/07/02 07:36:28;;;;;;;19.42;7.57;;;17.90;99.90;;;;;;5051072;28;20555;-85
2023/07/02 07:38:54;;;;;;;15.50;7.18;;;17.90;99.90;;;;;;5051234;28;20045;-85
2023/07/02 07:41:20;;;;;;;19.08;7.30;;;17.90;99.90;;;;;;5050419;28;20040;-85
2023/07/02 07:43:45;;;;;;;17.77;7.90;;;17.80;99.90;;;;;;5050334;28;20426;-85
2023/07/02 07:46:11;;;;;;;20.30;8.90;;;17.70;99.90;;;;;;5050523;28;20045;-85
2023/07/02 07:48:36;;;;;;;12.75;4.47;;;17.60;99.90;;;;;;5050396;28;20126;-85
2023/07/02 07:51:02;;;;;;;16.20;7.13;;;17.50;99.90;;;;;;5052632;28;20048;-86
2023/07/02 07:53:28;;;;;;;19.88;8.43;;;17.40;99.90;;;;;;5069802;28;20502;-85
2023/07/02 07:55:54;;;;;;;17.33;7.20;;;17.30;99.90;;;;;;5052858;28;20041;-85
2023/07/02 07:58:19;;;;;;;17.48;7.43;;;17.30;99.90;;;;;;5069876;28;20153;-85
2023/07/02 08:00:45;;;;;;;19.40;7.03;;;17.40;99.90;;;;;;5070521;28;20036;-85
2023/07/02 08:03:10;;;;;;;18.35;4.40;;;17.50;99.90;;;;;;5070367;28;20074;-85
2023/07/02 08:05:36;;;;;;;15.40;6.65;;;17.60;99.90;;;;;;5070272;28;20086;-86
2023/07/02 08:08:02;;;;;;;20.10;4.50;;;17.70;99.90;;;;;;5053579;28;20044;-85
2023/07/02 08:10:27;;;;;;;10.32;3.35;;;17.80;99.90;;;;;;5053123;28;20086;-85
2023/07/02 08:12:53;;;;;;;13.90;6.30;;;17.90;99.90;;;;;;5069105;28;20044;-85
2023/07/02 08:15:19;;;;;;;15.15;6.22;;;17.90;99.90;;;;;;5069857;28;20387;-85
2023/07/02 08:17:44;;;;;;;13.05;5.90;;;18.00;99.90;;;;;;5070246;28;20383;-85
2023/07/02 08:20:11;;;;;;;16.58;5.82;;;18.10;99.90;;;;;;5069801;28;20055;-85
2023/07/02 08:22:38;;;;;;;15.27;5.68;;;18.20;99.90;;;;;;5071267;28;20414;-85
2023/07/02 08:25:05;;;;;;;16.08;5.50;;;18.10;97.50;;;;;;5070248;28;20549;-85
2023/07/02 08:27:30;;;;;;;13.40;4.93;;;18.10;97.20;;;;;;5069770;28;20148;-85
2023/07/02 08:29:56;;;;;;;9.75;2.67;;;18.20;97.00;;;;;;5069711;28;20123;-85
2023/07/02 08:32:21;;;;;;;12.80;4.63;;;18.30;98.90;;;;;;5069499;28;20040;-85
2023/07/02 08:34:47;;;;;;;15.85;5.55;;;18.40;98.30;;;;;;5070262;28;20115;-85
2023/07/02 08:37:13;;;;;;;13.82;4.97;;;18.40;95.80;;;;;;5070035;28;20471;-85
2023/07/02 08:39:39;;;;;;;10.50;3.78;;;18.50;96.30;;;;;;5069812;28;20521;-85
2023/07/02 08:42:06;;;;;;;10.23;3.75;;;18.40;92.30;;;;;;5069523;28;20115;-85
2023/07/02 08:44:32;;;;;;;10.57;4.30;;;18.20;91.20;;;;;;5049529;28;20086;-85
2023/07/02 08:46:58;;;;;;;10.30;4.25;;;18.30;91.10;;;;;;5049154;28;20033;-85
2023/07/02 08:49:24;;;;;;;9.45;2.33;;;18.50;91.50;;;;;;5049173;28;20048;-85
2023/07/02 08:51:49;;;;;;;8.85;3.80;;;18.50;91.10;;;;;;5048642;28;20040;-85
2023/07/02 08:54:17;;;;;;;12.55;4.50;;;18.40;90.70;;;;;;5069626;28;20037;-85
2023/07/02 08:56:45;;;;;;;11.98;4.63;;;18.50;91.00;;;;;;5069372;28;20074;-85
2023/07/02 08:59:11;;;;;;;10.73;4.32;;;18.40;90.10;;;;;;5069653;28;20076;-85
2023/07/02 09:01:47;;;;;;;11.88;4.40;;;18.40;90.20;;;;;;5069614;28;20473;-85
2023/07/02 09:04:31;;;;;;;14.43;4.22;;;18.30;90.10;;;;;;5069613;28;20044;-85
2023/07/02 09:07:05;;;;;;;11.63;4.53;;;18.40;91.00;;;;;;5052643;28;20048;-85
2023/07/02 09:09:30;;;;;;;11.13;4.13;;;18.40;90.80;;;;;;5052735;28;20409;-85
2023/07/02 09:11:56;;;;;;;10.27;3.20;;;18.40;90.70;;;;;;5068788;28;20048;-85
2023/07/02 09:14:31;;;;;;;9.25;3.08;;;18.30;86.70;;;;;;5068990;28;20041;-85
2023/07/02 09:17:11;;;;;;;10.90;2.83;;;18.20;86.00;;;;;;5052443;28;20036;-85
2023/07/02 09:19:48;;;;;;;11.43;4.13;;;18.10;85.90;;;;;;5068965;28;20464;-85
2023/07/02 09:22:15;;;;;;;11.68;3.92;;;18.00;85.40;;;;;;5069576;28;20456;-85
2023/07/02 09:24:41;;;;;;;12.23;3.95;;;18.10;87.70;;;;;;5069050;28;20040;-85
2023/07/02 09:27:07;;;;;;;11.93;3.78;;;18.20;89.30;;;;;;5068689;28;20040;-85
2023/07/02 09:29:33;;;;;;;10.27;4.32;;;18.30;88.90;;;;;;5069135;28;20037;-85
2023/07/02 09:32:01;;;;;;;14.45;4.65;;;18.30;87.90;;;;;;5052375;28;20044;-85
2023/07/02 09:34:31;;;;;;;12.48;3.65;;;18.30;88.60;;;;;;5069540;28;20386;-85
2023/07/02 09:36:58;;;;;;;11.80;4.65;;;18.00;88.10;;;;;;5069069;28;20052;-85
2023/07/02 09:39:32;;;;;;;12.25;5.22;;;18.00;89.90;;;;;;5070455;28;20047;-85
2023/07/02 09:41:59;;;;;;;13.18;5.10;;;17.90;90.70;;;;;;5068934;28;20028;-85
2023/07/02 09:44:30;;;;;;;13.18;3.33;;;17.90;91.70;;;;;;5054229;28;20037;-85
2023/07/02 09:47:07;;;;;;;12.55;5.38;;;18.00;92.20;;;;;;5072411;28;20055;-85
2023/07/02 09:49:55;;;;;;;15.35;5.15;;;18.00;92.60;;;;;;5052873;28;20052;-85
2023/07/02 09:52:21;;;;;;;17.40;6.25;;;18.00;92.70;;;;;;5056168;28;20041;-85
2023/07/02 09:54:47;;;;;;;14.15;5.55;;;18.00;93.50;;;;;;5056143;28;20076;-85
2023/07/02 09:57:13;;;;;;;12.18;4.93;;;17.90;93.30;;;;;;5056130;28;20098;-85
2023/07/02 09:59:40;;;;;;;10.90;3.28;;;18.10;94.30;;;;;;5072365;28;20092;-85
2023/07/02 10:02:07;;;;;;;14.13;5.32;;;18.10;94.10;;;;;;5073211;28;20398;-85
2023/07/02 10:04:46;;;;;;;12.98;5.00;;;18.20;93.40;;;;;;5072511;28;20067;-85
2023/07/02 10:07:12;;;;;;;14.02;4.70;;;18.40;94.10;;;;;;5072726;28;20461;-85
2023/07/02 10:09:46;;;;;;;12.38;4.85;;;18.40;91.70;;;;;;5072258;28;20040;-85
2023/07/02 10:12:17;;;;;;;21.23;5.78;;;18.50;93.00;;;;;;5072098;28;20048;-85
2023/07/02 10:14:43;;;;;;;10.23;4.78;;;18.50;92.30;;;;;;5072365;28;20410;-85
2023/07/02 10:17:09;;;;;;;12.10;4.70;;;18.60;91.90;;;;;;5072509;28;20051;-85
2023/07/02 10:19:35;;;;;;;8.95;2.70;;;18.50;90.00;;;;;;5072337;28;20044;-85
2023/07/02 10:22:04;;;;;;;11.50;4.82;;;18.40;90.10;;;;;;5072537;28;20036;-85
2023/07/02 10:24:30;;;;;;;12.13;5.10;;;18.40;90.60;;;;;;5072087;28;20037;-85
2023/07/02 10:27:01;;;;;;;14.75;6.05;;;18.30;91.80;;;;;;5071513;28;20131;-85
2023/07/02 10:29:28;;;;;;;12.35;5.28;;;18.30;91.90;;;;;;5055462;28;20046;-85
2023/07/02 10:31:55;;;;;;;12.55;4.80;;;18.20;92.80;;;;;;5055528;28;20045;-85
2023/07/02 10:34:30;;;;;;;13.07;4.95;;;18.10;92.40;;;;;;5072248;28;20405;-85
2023/07/02 10:36:56;;;;;;;15.18;5.00;;;18.00;92.40;;;;;;5055463;28;20544;-85
2023/07/02 10:39:22;;;;;;;10.93;3.67;;;17.90;94.20;;;;;;5071929;28;20109;-85
2023/07/02 10:41:47;;;;;;;13.52;5.25;;;17.80;96.20;;;;;;5071817;28;20667;-85
2023/07/02 10:44:13;;;;;;;12.50;5.10;;;17.70;98.70;;;;;;5055372;28;20039;-85
2023/07/02 10:46:46;;;;;;;13.20;5.00;;;17.80;99.90;;;;;;5073137;28;20400;-85
2023/07/02 10:49:12;;;;;;;15.93;5.78;;;17.90;99.90;;;;;;5071693;28;20036;-85
2023/07/02 10:51:38;;;;;;;12.80;4.88;;;17.90;99.90;;;;;;5071264;28;20083;-85
2023/07/02 10:54:05;;;;;;;13.38;5.35;;;18.00;99.90;;;;;;5071973;28;20133;-86
2023/07/02 10:56:31;;;;;;;14.15;5.20;;;18.10;99.90;;;;;;5069895;28;20048;-85
2023/07/02 10:58:57;;;;;;;15.65;5.63;;;18.20;99.90;;;;;;5071688;28;20087;-86
2023/07/02 11:01:28;;;;;;;12.75;5.28;;;18.50;99.90;;;;;;5071372;28;20517;-85
2023/07/02 11:04:04;;;;;;;11.73;4.47;;;18.70;99.90;;;;;;5071715;28;20037;-85
2023/07/02 11:06:34;;;;;;;13.35;4.90;;;18.80;98.50;;;;;;5054755;28;20040;-86
2023/07/02 11:09:00;;;;;;;13.60;4.80;;;18.70;99.00;;;;;;5054549;28;20170;-85
2023/07/02 11:11:26;;;;;;;12.38;4.82;;;18.80;99.40;;;;;;5054404;28;20044;-85
2023/07/02 11:13:52;;;;;;;13.65;5.18;;;18.80;98.30;;;;;;5072410;28;20104;-85
2023/07/02 11:16:25;;;;;;;13.57;5.10;;;18.80;97.40;;;;;;5054604;28;20044;-85
2023/07/02 11:18:54;;;;;;;;;;;18.80;99.00;;;;;;5071741;28;20044;-85
2023/07/02 11:21:20;;;;;;;16.83;3.50;;;18.80;98.60;;;;;;5072103;28;19962;-86
2023/07/02 11:23:46;;;;;;;13.15;5.18;;;18.70;98.70;;;;;;5070799;28;20506;-85
2023/07/02 11:26:11;;;;;;;14.40;5.40;;;18.70;97.80;;;;;;5071274;28;20064;-85
2023/07/02 11:28:49;;;;;;;12.45;4.40;;;18.70;96.50;;;;;;5070968;28;20410;-85
2023/07/02 11:31:24;;;;;;;10.50;4.35;;;18.80;96.70;;;;;;5053986;28;20051;-85
2023/07/02 11:33:50;;;;;;;11.60;4.50;;;18.80;93.10;;;;;;5054114;28;20086;-85
2023/07/02 11:36:21;;;;;;;11.43;4.20;;;18.80;92.30;;;;;;5054232;28;20052;-85
2023/07/02 11:38:48;;;;;;;10.17;3.70;;;18.80;89.20;;;;;;5070861;28;20641;-85
2023/07/02 11:41:14;;;;;;;10.02;4.00;;;18.70;84.60;;;;;;5072180;28;20278;-85
2023/07/02 11:43:39;;;;;;;11.35;3.70;;;18.70;82.80;;;;;;5071119;28;20094;-85
2023/07/02 11:46:05;;;;;;;10.90;3.38;;;18.60;82.00;;;;;;5070088;28;20042;-85
2023/07/02 11:48:30;;;;;;;10.52;3.85;;;18.60;79.20;;;;;;5053701;28;20135;-85
2023/07/02 11:50:56;;;;;;;11.82;4.13;;;18.60;77.50;;;;;;5053682;28;20040;-85
2023/07/02 11:53:22;;;;;;;9.38;3.33;;;18.60;79.60;;;;;;5070300;28;20115;-85
2023/07/02 11:55:47;;;;;;;11.98;3.80;;;18.80;77.10;;;;;;5071203;28;20048;-85
2023/07/02 11:58:13;;;;;;;10.85;3.63;;;18.90;76.20;;;;;;5070246;28;20399;-85
2023/07/02 12:00:38;;;;;;;13.00;4.22;;;19.00;76.80;;;;;;5070413;28;20041;-85
2023/07/02 12:03:04;;;;;;;9.25;4.07;;;19.00;75.50;;;;;;5070512;28;20040;-85
2023/07/02 12:05:30;;;;;;;10.52;3.85;;;19.10;75.10;;;;;;5053695;28;20461;-85
2023/07/02 12:07:55;;;;;;;13.18;4.22;;;19.10;77.50;;;;;;5069986;28;20032;-85
2023/07/02 12:10:21;;;;;;;10.57;3.97;;;19.10;76.70;;;;;;5070903;28;20417;-85
2023/07/02 12:12:46;;;;;;;12.25;4.20;;;19.00;76.30;;;;;;5069977;28;20068;-85
2023/07/02 12:15:12;;;;;;;9.70;3.40;;;19.00;76.80;;;;;;5070247;28;20040;-85
2023/07/02 12:17:38;;;;;;;10.35;3.72;;;18.90;76.20;;;;;;5070097;28;20033;-85
2023/07/02 12:20:04;;;;;;;11.80;3.30;;;19.00;77.10;;;;;;5069860;28;20119;-85
2023/07/02 12:22:29;;;;;;;9.73;3.20;;;19.00;76.70;;;;;;5070083;28;20067;-85
2023/07/02 12:24:57;;;;;;;9.63;3.42;;;19.10;79.10;;;;;;5070225;28;20037;-85
2023/07/02 12:27:23;;;;;;;15.20;3.83;;;19.40;78.90;;;;;;5070896;28;20044;-85
2023/07/02 12:29:48;;;;;;;12.10;3.65;;;19.50;77.80;;;;;;5053214;28;20041;-85
2023/07/02 12:32:14;;;;;;;9.25;3.25;;;19.50;75.90;;;;;;5071151;28;20044;-86